sensor_id;sensor_type;location;lat;lon;timestamp;temperature;humidity
27004;DHT22;14546;47.590;19.022;2023-05-07T00:01:45;14.70;90.40
27004;DHT22;14546;47.590;19.022;2023-05-07T00:04:11;14.70;90.40
27004;DHT22;14546;47.590;19.022;2023-05-07T00:06:39;14.60;90.70
27004;DHT22;14546;47.590;19.022;2023-05-07T00:09:05;14.60;90.40
27004;DHT22;14546;47.590;19.022;2023-05-07T00:11:31;14.60;90.50
27004;DHT22;14546;47.590;19.022;2023-05-07T00:13:57;14.50;90.50
27004;DHT22;14546;47.590;19.022;2023-05-07T00:16:23;14.60;90.70
27004;DHT22;14546;47.590;19.022;2023-05-07T00:18:49;14.50;91.00
27004;DHT22;14546;47.590;19.022;2023-05-07T00:21:14;14.40;90.60
27004;DHT22;14546;47.590;19.022;2023-05-07T00:23:40;14.40;90.60
27004;DHT22;14546;47.590;19.022;2023-05-07T00:26:06;14.40;91.00
27004;DHT22;14546;47.590;19.022;2023-05-07T00:28:31;14.40;91.30
27004;DHT22;14546;47.590;19.022;2023-05-07T00:30:57;14.30;90.70
27004;DHT22;14546;47.590;19.022;2023-05-07T00:33:23;14.30;90.80
27004;DHT22;14546;47.590;19.022;2023-05-07T00:35:48;14.30;91.10
27004;DHT22;14546;47.590;19.022;2023-05-07T00:50:27;14.30;90.80
27004;DHT22;14546;47.590;19.022;2023-05-07T00:52:53;14.20;91.30
27004;DHT22;14546;47.590;19.022;2023-05-07T00:55:19;14.20;91.20
27004;DHT22;14546;47.590;19.022;2023-05-07T00:57:46;14.30;91.30
27004;DHT22;14546;47.590;19.022;2023-05-07T01:00:12;14.30;91.40
27004;DHT22;14546;47.590;19.022;2023-05-07T01:02:38;14.30;91.50
27004;DHT22;14546;47.590;19.022;2023-05-07T01:05:06;14.30;91.60
27004;DHT22;14546;47.590;19.022;2023-05-07T01:07:33;14.40;91.60
27004;DHT22;14546;47.590;19.022;2023-05-07T01:09:59;14.40;91.70
27004;DHT22;14546;47.590;19.022;2023-05-07T01:12:26;14.40;91.80
27004;DHT22;14546;47.590;19.022;2023-05-07T01:14:53;14.50;91.80
27004;DHT22;14546;47.590;19.022;2023-05-07T01:17:19;14.50;91.80
27004;DHT22;14546;47.590;19.022;2023-05-07T01:19:44;14.60;91.80
27004;DHT22;14546;47.590;19.022;2023-05-07T01:22:11;14.60;91.80
27004;DHT22;14546;47.590;19.022;2023-05-07T01:24:37;14.60;91.80
27004;DHT22;14546;47.590;19.022;2023-05-07T01:27:04;14.60;91.80
27004;DHT22;14546;47.590;19.022;2023-05-07T01:29:30;14.60;91.80
27004;DHT22;14546;47.590;19.022;2023-05-07T01:32:00;14.60;91.70
27004;DHT22;14546;47.590;19.022;2023-05-07T01:34:28;14.60;91.70
27004;DHT22;14546;47.590;19.022;2023-05-07T01:36:56;14.60;91.70
27004;DHT22;14546;47.590;19.022;2023-05-07T01:39:27;14.60;91.60
27004;DHT22;14546;47.590;19.022;2023-05-07T01:41:56;14.50;91.60
27004;DHT22;14546;47.590;19.022;2023-05-07T01:44:25;14.50;91.60
27004;DHT22;14546;47.590;19.022;2023-05-07T01:46:51;14.40;91.60
27004;DHT22;14546;47.590;19.022;2023-05-07T01:49:23;14.40;91.60
27004;DHT22;14546;47.590;19.022;2023-05-07T01:51:49;14.30;91.70
27004;DHT22;14546;47.590;19.022;2023-05-07T01:54:14;14.20;91.80
27004;DHT22;14546;47.590;19.022;2023-05-07T01:56:40;14.30;91.90
27004;DHT22;14546;47.590;19.022;2023-05-07T01:59:06;14.20;91.90
27004;DHT22;14546;47.590;19.022;2023-05-07T02:01:32;14.30;92.00
27004;DHT22;14546;47.590;19.022;2023-05-07T02:03:57;14.20;91.90
27004;DHT22;14546;47.590;19.022;2023-05-07T02:06:23;14.20;91.90
27004;DHT22;14546;47.590;19.022;2023-05-07T02:08:49;14.20;91.80
27004;DHT22;14546;47.590;19.022;2023-05-07T02:11:15;14.10;91.80
27004;DHT22;14546;47.590;19.022;2023-05-07T02:13:41;14.10;91.90
27004;DHT22;14546;47.590;19.022;2023-05-07T02:16:07;14.10;91.90
27004;DHT22;14546;47.590;19.022;2023-05-07T02:18:32;14.00;91.80
27004;DHT22;14546;47.590;19.022;2023-05-07T02:20:58;14.00;91.90
27004;DHT22;14546;47.590;19.022;2023-05-07T02:23:24;13.90;91.80
27004;DHT22;14546;47.590;19.022;2023-05-07T02:25:50;13.90;91.80
27004;DHT22;14546;47.590;19.022;2023-05-07T02:28:16;13.80;91.80
27004;DHT22;14546;47.590;19.022;2023-05-07T02:30:41;13.80;91.80
27004;DHT22;14546;47.590;19.022;2023-05-07T02:33:07;13.80;91.90
27004;DHT22;14546;47.590;19.022;2023-05-07T02:35:33;13.70;91.90
27004;DHT22;14546;47.590;19.022;2023-05-07T02:37:59;13.70;91.90
27004;DHT22;14546;47.590;19.022;2023-05-07T02:40:25;13.70;92.00
27004;DHT22;14546;47.590;19.022;2023-05-07T02:42:50;13.70;92.00
27004;DHT22;14546;47.590;19.022;2023-05-07T02:45:16;13.60;92.00
27004;DHT22;14546;47.590;19.022;2023-05-07T02:47:41;13.60;92.10
27004;DHT22;14546;47.590;19.022;2023-05-07T02:50:07;13.50;92.00
27004;DHT22;14546;47.590;19.022;2023-05-07T02:52:33;13.50;92.10
27004;DHT22;14546;47.590;19.022;2023-05-07T02:54:58;13.50;92.10
27004;DHT22;14546;47.590;19.022;2023-05-07T02:57:24;13.50;92.20
27004;DHT22;14546;47.590;19.022;2023-05-07T02:59:50;13.50;92.20
27004;DHT22;14546;47.590;19.022;2023-05-07T03:02:16;13.50;92.20
27004;DHT22;14546;47.590;19.022;2023-05-07T03:04:41;13.50;92.20
27004;DHT22;14546;47.590;19.022;2023-05-07T03:07:07;13.50;92.20
27004;DHT22;14546;47.590;19.022;2023-05-07T03:09:33;13.50;92.20
27004;DHT22;14546;47.590;19.022;2023-05-07T03:11:58;13.50;92.30
27004;DHT22;14546;47.590;19.022;2023-05-07T03:14:24;13.40;92.30
27004;DHT22;14546;47.590;19.022;2023-05-07T03:16:50;13.50;92.30
27004;DHT22;14546;47.590;19.022;2023-05-07T03:19:16;13.40;92.30
27004;DHT22;14546;47.590;19.022;2023-05-07T03:21:41;13.40;92.30
27004;DHT22;14546;47.590;19.022;2023-05-07T03:24:07;13.40;92.40
27004;DHT22;14546;47.590;19.022;2023-05-07T03:26:33;13.40;92.40
27004;DHT22;14546;47.590;19.022;2023-05-07T03:28:58;13.40;92.50
27004;DHT22;14546;47.590;19.022;2023-05-07T03:31:24;13.40;92.60
27004;DHT22;14546;47.590;19.022;2023-05-07T03:33:55;13.40;92.60
27004;DHT22;14546;47.590;19.022;2023-05-07T03:36:21;13.40;92.60
27004;DHT22;14546;47.590;19.022;2023-05-07T03:38:47;13.40;92.60
27004;DHT22;14546;47.590;19.022;2023-05-07T03:41:13;13.40;92.60
27004;DHT22;14546;47.590;19.022;2023-05-07T03:43:38;13.40;92.70
27004;DHT22;14546;47.590;19.022;2023-05-07T03:46:04;13.40;92.70
27004;DHT22;14546;47.590;19.022;2023-05-07T03:48:30;13.50;92.80
27004;DHT22;14546;47.590;19.022;2023-05-07T03:50:57;13.50;92.80
27004;DHT22;14546;47.590;19.022;2023-05-07T03:53:23;13.40;92.90
27004;DHT22;14546;47.590;19.022;2023-05-07T03:55:48;13.50;93.00
27004;DHT22;14546;47.590;19.022;2023-05-07T03:58:15;13.50;93.10
27004;DHT22;14546;47.590;19.022;2023-05-07T04:00:41;13.50;93.10
27004;DHT22;14546;47.590;19.022;2023-05-07T04:54:20;13.50;93.20
27004;DHT22;14546;47.590;19.022;2023-05-07T04:56:46;14.10;94.40
27004;DHT22;14546;47.590;19.022;2023-05-07T04:59:12;14.20;94.40
27004;DHT22;14546;47.590;19.022;2023-05-07T05:01:37;14.20;94.50
27004;DHT22;14546;47.590;19.022;2023-05-07T05:04:03;14.30;94.60
27004;DHT22;14546;47.590;19.022;2023-05-07T05:06:29;14.40;94.70
27004;DHT22;14546;47.590;19.022;2023-05-07T05:08:54;14.50;94.90
27004;DHT22;14546;47.590;19.022;2023-05-07T05:11:21;14.60;94.90
27004;DHT22;14546;47.590;19.022;2023-05-07T05:13:46;14.70;94.90
27004;DHT22;14546;47.590;19.022;2023-05-07T05:16:14;14.80;94.80
27004;DHT22;14546;47.590;19.022;2023-05-07T05:18:41;14.90;94.50
27004;DHT22;14546;47.590;19.022;2023-05-07T05:21:06;15.00;94.70
27004;DHT22;14546;47.590;19.022;2023-05-07T05:35:42;15.10;94.70
27004;DHT22;14546;47.590;19.022;2023-05-07T05:38:08;15.50;94.30
27004;DHT22;14546;47.590;19.022;2023-05-07T05:40:34;15.50;93.90
27004;DHT22;14546;47.590;19.022;2023-05-07T05:43:00;15.50;93.80
27004;DHT22;14546;47.590;19.022;2023-05-07T05:45:25;15.60;93.70
27004;DHT22;14546;47.590;19.022;2023-05-07T05:47:51;15.60;93.60
27004;DHT22;14546;47.590;19.022;2023-05-07T05:50:17;15.70;93.60
27004;DHT22;14546;47.590;19.022;2023-05-07T05:52:42;15.70;93.50
27004;DHT22;14546;47.590;19.022;2023-05-07T05:55:08;15.80;93.40
27004;DHT22;14546;47.590;19.022;2023-05-07T05:57:35;15.90;93.10
27004;DHT22;14546;47.590;19.022;2023-05-07T15:42:45;16.00;93.30
27004;DHT22;14546;47.590;19.022;2023-05-07T15:45:11;25.20;43.40
27004;DHT22;14546;47.590;19.022;2023-05-07T15:47:37;24.60;43.10
27004;DHT22;14546;47.590;19.022;2023-05-07T16:38:54;24.50;43.30
27004;DHT22;14546;47.590;19.022;2023-05-07T16:41:20;22.50;45.70
27004;DHT22;14546;47.590;19.022;2023-05-07T16:43:46;22.20;46.00
27004;DHT22;14546;47.590;19.022;2023-05-07T16:46:12;22.10;46.40
27004;DHT22;14546;47.590;19.022;2023-05-07T16:48:37;22.00;46.70
27004;DHT22;14546;47.590;19.022;2023-05-07T16:51:03;21.90;47.00
27004;DHT22;14546;47.590;19.022;2023-05-07T16:53:28;21.70;47.30
27004;DHT22;14546;47.590;19.022;2023-05-07T16:55:54;21.60;47.60
27004;DHT22;14546;47.590;19.022;2023-05-07T16:58:21;21.50;47.70
27004;DHT22;14546;47.590;19.022;2023-05-07T17:00:47;21.40;48.00
27004;DHT22;14546;47.590;19.022;2023-05-07T17:03:12;21.30;48.30
27004;DHT22;14546;47.590;19.022;2023-05-07T17:05:38;21.20;48.50
27004;DHT22;14546;47.590;19.022;2023-05-07T17:08:04;21.00;48.60
27004;DHT22;14546;47.590;19.022;2023-05-07T17:10:30;20.90;48.70
27004;DHT22;14546;47.590;19.022;2023-05-07T17:12:56;20.70;48.90
27004;DHT22;14546;47.590;19.022;2023-05-07T17:15:21;20.70;49.10
27004;DHT22;14546;47.590;19.022;2023-05-07T17:22:39;20.50;49.10
27004;DHT22;14546;47.590;19.022;2023-05-07T17:25:05;20.20;49.70
27004;DHT22;14546;47.590;19.022;2023-05-07T17:27:31;20.00;49.90
27004;DHT22;14546;47.590;19.022;2023-05-07T17:32:24;19.80;50.40
27004;DHT22;14546;47.590;19.022;2023-05-07T17:34:50;19.60;50.60
27004;DHT22;14546;47.590;19.022;2023-05-07T17:37:16;19.50;50.80
27004;DHT22;14546;47.590;19.022;2023-05-07T17:39:42;19.40;51.20
27004;DHT22;14546;47.590;19.022;2023-05-07T17:42:08;19.30;51.50
27004;DHT22;14546;47.590;19.022;2023-05-07T17:44:34;19.20;51.80
27004;DHT22;14546;47.590;19.022;2023-05-07T17:47:01;19.10;52.10
27004;DHT22;14546;47.590;19.022;2023-05-07T17:49:27;19.00;52.40
27004;DHT22;14546;47.590;19.022;2023-05-07T17:51:53;18.80;52.60
27004;DHT22;14546;47.590;19.022;2023-05-07T17:54:19;18.80;52.80
27004;DHT22;14546;47.590;19.022;2023-05-07T17:56:46;18.60;53.10
27004;DHT22;14546;47.590;19.022;2023-05-07T17:59:11;18.50;53.50
27004;DHT22;14546;47.590;19.022;2023-05-07T18:01:37;18.40;53.80
27004;DHT22;14546;47.590;19.022;2023-05-07T18:04:03;18.30;54.00
27004;DHT22;14546;47.590;19.022;2023-05-07T18:06:29;18.20;54.30
27004;DHT22;14546;47.590;19.022;2023-05-07T18:08:55;18.10;54.70
27004;DHT22;14546;47.590;19.022;2023-05-07T18:11:22;17.90;55.00
27004;DHT22;14546;47.590;19.022;2023-05-07T18:13:48;17.80;55.40
27004;DHT22;14546;47.590;19.022;2023-05-07T18:16:13;17.70;55.80
27004;DHT22;14546;47.590;19.022;2023-05-07T18:18:40;17.50;56.10
27004;DHT22;14546;47.590;19.022;2023-05-07T18:21:06;17.40;56.30
27004;DHT22;14546;47.590;19.022;2023-05-07T18:23:31;17.40;56.60
27004;DHT22;14546;47.590;19.022;2023-05-07T18:26:01;17.30;56.80
27004;DHT22;14546;47.590;19.022;2023-05-07T18:28:27;17.20;56.90
27004;DHT22;14546;47.590;19.022;2023-05-07T18:30:53;17.10;57.00
27004;DHT22;14546;47.590;19.022;2023-05-07T18:33:19;17.10;57.20
27004;DHT22;14546;47.590;19.022;2023-05-07T18:35:44;17.10;57.90
27004;DHT22;14546;47.590;19.022;2023-05-07T18:38:10;17.00;57.40
27004;DHT22;14546;47.590;19.022;2023-05-07T18:40:36;17.00;57.50
27004;DHT22;14546;47.590;19.022;2023-05-07T18:43:01;16.90;57.60
27004;DHT22;14546;47.590;19.022;2023-05-07T18:45:32;16.90;57.70
27004;DHT22;14546;47.590;19.022;2023-05-07T18:47:58;16.90;57.90
27004;DHT22;14546;47.590;19.022;2023-05-07T18:50:24;16.80;58.00
27004;DHT22;14546;47.590;19.022;2023-05-07T18:52:50;16.70;58.00
27004;DHT22;14546;47.590;19.022;2023-05-07T18:55:16;16.70;58.20
27004;DHT22;14546;47.590;19.022;2023-05-07T18:57:42;16.60;58.40
27004;DHT22;14546;47.590;19.022;2023-05-07T19:00:10;16.50;58.50
27004;DHT22;14546;47.590;19.022;2023-05-07T19:02:37;16.50;58.60
27004;DHT22;14546;47.590;19.022;2023-05-07T19:05:04;16.50;58.80
27004;DHT22;14546;47.590;19.022;2023-05-07T19:07:30;16.40;59.20
27004;DHT22;14546;47.590;19.022;2023-05-07T19:09:56;16.30;59.60
27004;DHT22;14546;47.590;19.022;2023-05-07T19:12:22;16.30;59.80
27004;DHT22;14546;47.590;19.022;2023-05-07T19:14:48;16.20;59.90
27004;DHT22;14546;47.590;19.022;2023-05-07T19:17:14;16.20;60.10
27004;DHT22;14546;47.590;19.022;2023-05-07T19:19:43;16.20;60.30
27004;DHT22;14546;47.590;19.022;2023-05-07T19:22:13;16.10;60.60
27004;DHT22;14546;47.590;19.022;2023-05-07T19:24:40;16.10;61.60
27004;DHT22;14546;47.590;19.022;2023-05-07T19:27:06;16.10;62.50
27004;DHT22;14546;47.590;19.022;2023-05-07T19:29:33;16.10;63.20
27004;DHT22;14546;47.590;19.022;2023-05-07T19:32:00;16.10;63.90
27004;DHT22;14546;47.590;19.022;2023-05-07T19:34:25;16.00;64.40
27004;DHT22;14546;47.590;19.022;2023-05-07T19:56:24;16.00;65.00
27004;DHT22;14546;47.590;19.022;2023-05-07T19:58:50;15.30;68.80
27004;DHT22;14546;47.590;19.022;2023-05-07T20:01:17;15.20;68.00
27004;DHT22;14546;47.590;19.022;2023-05-07T20:03:43;15.10;68.00
27004;DHT22;14546;47.590;19.022;2023-05-07T20:06:09;15.00;67.80
27004;DHT22;14546;47.590;19.022;2023-05-07T20:08:34;14.90;67.80
27004;DHT22;14546;47.590;19.022;2023-05-07T20:11:00;14.80;67.80
27004;DHT22;14546;47.590;19.022;2023-05-07T20:13:26;14.80;67.80
27004;DHT22;14546;47.590;19.022;2023-05-07T20:15:56;14.70;67.70
27004;DHT22;14546;47.590;19.022;2023-05-07T20:18:23;14.60;67.80
27004;DHT22;14546;47.590;19.022;2023-05-07T20:20:51;14.60;67.80
27004;DHT22;14546;47.590;19.022;2023-05-07T20:23:17;14.60;67.80
27004;DHT22;14546;47.590;19.022;2023-05-07T20:25:43;14.50;67.80
27004;DHT22;14546;47.590;19.022;2023-05-07T21:12:03;14.50;67.90
27004;DHT22;14546;47.590;19.022;2023-05-07T21:14:29;13.90;67.70
27004;DHT22;14546;47.590;19.022;2023-05-07T21:16:54;13.80;67.60
27004;DHT22;14546;47.590;19.022;2023-05-07T21:19:20;13.70;67.60
27004;DHT22;14546;47.590;19.022;2023-05-07T21:21:46;13.60;67.60
27004;DHT22;14546;47.590;19.022;2023-05-07T21:24:11;13.60;67.70
27004;DHT22;14546;47.590;19.022;2023-05-07T21:26:37;13.50;67.80
27004;DHT22;14546;47.590;19.022;2023-05-07T21:29:03;13.50;67.90
27004;DHT22;14546;47.590;19.022;2023-05-07T21:31:29;13.50;68.10
27004;DHT22;14546;47.590;19.022;2023-05-07T21:33:54;13.50;68.10
27004;DHT22;14546;47.590;19.022;2023-05-07T21:36:22;13.40;68.00
27004;DHT22;14546;47.590;19.022;2023-05-07T21:38:47;13.40;68.30
27004;DHT22;14546;47.590;19.022;2023-05-07T21:41:13;13.30;68.40
27004;DHT22;14546;47.590;19.022;2023-05-07T21:43:39;13.30;68.50
27004;DHT22;14546;47.590;19.022;2023-05-07T21:46:07;13.20;68.60
27004;DHT22;14546;47.590;19.022;2023-05-07T21:48:33;13.10;68.80
27004;DHT22;14546;47.590;19.022;2023-05-07T21:51:06;13.10;68.90
27004;DHT22;14546;47.590;19.022;2023-05-07T21:53:32;13.00;69.00
27004;DHT22;14546;47.590;19.022;2023-05-07T21:55:58;13.00;69.20
27004;DHT22;14546;47.590;19.022;2023-05-07T21:58:25;12.90;70.10
27004;DHT22;14546;47.590;19.022;2023-05-07T22:00:51;12.80;69.40
27004;DHT22;14546;47.590;19.022;2023-05-07T22:03:16;12.80;69.50
27004;DHT22;14546;47.590;19.022;2023-05-07T22:05:42;12.70;69.70
27004;DHT22;14546;47.590;19.022;2023-05-07T22:08:08;12.70;69.90
27004;DHT22;14546;47.590;19.022;2023-05-07T22:10:35;12.60;70.00
27004;DHT22;14546;47.590;19.022;2023-05-07T22:13:01;12.60;70.20
27004;DHT22;14546;47.590;19.022;2023-05-07T22:15:26;12.50;70.40
27004;DHT22;14546;47.590;19.022;2023-05-07T22:17:52;12.40;70.50
27004;DHT22;14546;47.590;19.022;2023-05-07T22:20:17;12.40;70.90
27004;DHT22;14546;47.590;19.022;2023-05-07T22:22:47;12.30;70.90
27004;DHT22;14546;47.590;19.022;2023-05-07T22:25:13;12.30;71.10
27004;DHT22;14546;47.590;19.022;2023-05-07T22:27:39;12.30;71.20
27004;DHT22;14546;47.590;19.022;2023-05-07T22:30:05;12.20;71.30
27004;DHT22;14546;47.590;19.022;2023-05-07T22:32:31;12.10;71.50
27004;DHT22;14546;47.590;19.022;2023-05-07T22:34:57;12.10;71.80
27004;DHT22;14546;47.590;19.022;2023-05-07T22:37:22;12.00;72.00
27004;DHT22;14546;47.590;19.022;2023-05-07T22:39:48;12.00;72.20
27004;DHT22;14546;47.590;19.022;2023-05-07T22:42:13;11.90;72.40
27004;DHT22;14546;47.590;19.022;2023-05-07T22:44:41;11.90;72.50
27004;DHT22;14546;47.590;19.022;2023-05-07T22:47:07;11.90;72.60
27004;DHT22;14546;47.590;19.022;2023-05-07T22:49:36;11.90;72.80
27004;DHT22;14546;47.590;19.022;2023-05-07T22:52:02;11.90;73.00
27004;DHT22;14546;47.590;19.022;2023-05-07T22:54:29;11.90;73.00
27004;DHT22;14546;47.590;19.022;2023-05-07T22:56:55;11.90;73.20
27004;DHT22;14546;47.590;19.022;2023-05-07T22:59:23;11.90;73.30
27004;DHT22;14546;47.590;19.022;2023-05-07T23:01:49;11.90;73.40
27004;DHT22;14546;47.590;19.022;2023-05-07T23:04:14;11.90;74.30
27004;DHT22;14546;47.590;19.022;2023-05-07T23:06:40;11.90;73.60
27004;DHT22;14546;47.590;19.022;2023-05-07T23:09:06;11.90;73.80
27004;DHT22;14546;47.590;19.022;2023-05-07T23:11:33;11.90;73.80
27004;DHT22;14546;47.590;19.022;2023-05-07T23:13:59;11.90;73.80
27004;DHT22;14546;47.590;19.022;2023-05-07T23:16:25;11.90;73.80
27004;DHT22;14546;47.590;19.022;2023-05-07T23:18:51;11.80;73.70
27004;DHT22;14546;47.590;19.022;2023-05-07T23:21:16;11.80;73.90
27004;DHT22;14546;47.590;19.022;2023-05-07T23:23:42;11.80;74.00
27004;DHT22;14546;47.590;19.022;2023-05-07T23:26:07;11.70;74.00
27004;DHT22;14546;47.590;19.022;2023-05-07T23:28:33;11.70;74.20
27004;DHT22;14546;47.590;19.022;2023-05-07T23:30:59;11.70;74.30
27004;DHT22;14546;47.590;19.022;2023-05-07T23:33:25;11.70;74.30
27004;DHT22;14546;47.590;19.022;2023-05-07T23:36:00;11.70;74.50
27004;DHT22;14546;47.590;19.022;2023-05-07T23:38:26;11.60;74.70
27004;DHT22;14546;47.590;19.022;2023-05-07T23:40:52;11.70;74.70
27004;DHT22;14546;47.590;19.022;2023-05-07T23:43:19;11.60;74.70
27004;DHT22;14546;47.590;19.022;2023-05-07T23:45:45;11.60;74.70
27004;DHT22;14546;47.590;19.022;2023-05-07T23:48:10;11.60;74.60
27004;DHT22;14546;47.590;19.022;2023-05-07T23:50:36;11.70;74.70
27004;DHT22;14546;47.590;19.022;2023-05-07T23:53:02;11.70;74.70
27004;DHT22;14546;47.590;19.022;2023-05-07T23:55:28;11.70;74.70
27004;DHT22;14546;47.590;19.022;2023-05-07T23:57:53;11.70;74.70
